createdAt,value
2018-12-06T00:01:00.530Z,17.98
2018-12-06T00:03:41.714Z,18.70
2018-12-06T00:06:10.950Z,14.03
2018-12-06T00:08:52.181Z,23.12
2018-12-06T00:11:21.192Z,17.48
2018-12-06T00:14:02.385Z,15.75
2018-12-06T00:16:31.283Z,16.17
2018-12-06T00:19:12.899Z,16.15
2018-12-06T00:21:42.096Z,17.73
2018-12-06T00:24:23.265Z,18.30
2018-12-06T00:26:52.498Z,17.07
2018-12-06T00:29:33.783Z,17.20
2018-12-06T00:32:04.595Z,17.42
2018-12-06T00:34:45.793Z,17.02
2018-12-06T00:37:14.682Z,17.90
2018-12-06T00:39:55.861Z,17.15
2018-12-06T00:42:24.833Z,20.23
2018-12-06T00:45:06.050Z,14.70
2018-12-06T00:47:36.246Z,17.80
2018-12-06T00:50:17.514Z,18.48
2018-12-06T00:52:46.514Z,13.55
2018-12-06T00:55:27.685Z,14.40
2018-12-06T00:57:56.699Z,20.00
2018-12-06T01:00:37.864Z,14.50
2018-12-06T01:03:06.771Z,13.75
2018-12-06T01:05:47.979Z,21.73
2018-12-06T01:08:16.892Z,13.72
2018-12-06T01:10:58.093Z,15.20
2018-12-06T01:13:27.007Z,11.33
2018-12-06T01:16:08.161Z,14.77
2018-12-06T01:18:37.058Z,13.40
2018-12-06T01:21:18.251Z,12.67
2018-12-06T01:23:47.159Z,10.57
2018-12-06T01:26:28.325Z,14.47
2018-12-06T01:28:57.862Z,12.83
2018-12-06T01:31:39.099Z,15.23
2018-12-06T01:34:08.366Z,13.40
2018-12-06T01:36:49.559Z,12.57
2018-12-06T01:39:18.465Z,12.43
2018-12-06T01:41:59.756Z,11.08
2018-12-06T01:44:28.766Z,10.70
2018-12-06T01:47:09.930Z,13.00
2018-12-06T01:49:38.835Z,11.33
2018-12-06T01:52:20.090Z,15.15
2018-12-06T01:54:49.114Z,12.70
2018-12-06T01:57:30.310Z,10.95
2018-12-06T01:59:59.231Z,15.15
2018-12-06T02:02:41.558Z,13.05
2018-12-06T02:05:10.481Z,9.50
2018-12-06T02:07:51.673Z,8.98
2018-12-06T02:10:20.577Z,12.68
2018-12-06T02:13:01.787Z,11.25
2018-12-06T02:15:30.742Z,11.73
2018-12-06T02:18:11.913Z,11.85
2018-12-06T02:20:40.834Z,18.25
2018-12-06T02:23:22.032Z,9.85
2018-12-06T02:25:51.043Z,15.05
2018-12-06T02:28:32.294Z,9.63
2018-12-06T02:31:01.315Z,10.68
2018-12-06T02:33:43.446Z,12.82
2018-12-06T02:36:12.455Z,12.78
2018-12-06T02:38:53.658Z,9.95
2018-12-06T02:41:22.862Z,9.50
2018-12-06T02:44:04.389Z,13.72
2018-12-06T02:46:33.311Z,9.33
2018-12-06T02:49:14.655Z,8.33
2018-12-06T02:51:43.668Z,10.43
2018-12-06T02:54:24.864Z,9.08
2018-12-06T02:56:55.271Z,10.95
2018-12-06T02:59:36.438Z,9.45
2018-12-06T03:02:06.419Z,9.48
2018-12-06T03:04:47.751Z,10.40
2018-12-06T03:07:18.575Z,10.18
2018-12-06T03:09:59.768Z,9.28
2018-12-06T03:12:28.841Z,10.70
2018-12-06T03:15:10.185Z,12.63
2018-12-06T03:17:51.567Z,11.35
2018-12-06T03:20:20.462Z,12.15
2018-12-06T03:23:01.763Z,14.28
2018-12-06T03:25:30.783Z,12.78
2018-12-06T03:28:11.976Z,10.78
2018-12-06T03:30:42.202Z,15.43
2018-12-06T03:33:23.443Z,9.40
2018-12-06T03:35:52.459Z,15.50
2018-12-06T03:38:33.690Z,10.03
2018-12-06T03:41:03.122Z,9.13
2018-12-06T03:43:44.679Z,8.98
2018-12-06T03:46:15.490Z,10.32
2018-12-06T03:48:56.695Z,9.05
2018-12-06T03:51:25.615Z,10.05
2018-12-06T03:54:06.818Z,8.63
2018-12-06T03:56:35.837Z,10.00
2018-12-06T03:59:24.378Z,7.78
2018-12-06T04:01:56.350Z,7.33
2018-12-06T04:04:37.599Z,9.73
2018-12-06T04:07:06.495Z,11.57
2018-12-06T04:09:47.690Z,13.13
2018-12-06T04:12:16.593Z,13.80
2018-12-06T04:14:57.813Z,12.10
2018-12-06T04:17:26.879Z,10.03
2018-12-06T04:20:08.174Z,9.45
2018-12-06T04:22:37.258Z,11.22
2018-12-06T04:25:18.470Z,10.30
2018-12-06T04:27:48.763Z,8.33
2018-12-06T04:30:29.985Z,12.35
2018-12-06T04:33:00.202Z,10.28
2018-12-06T04:35:41.446Z,11.05
2018-12-06T04:38:10.320Z,8.90
2018-12-06T04:40:51.654Z,7.30
2018-12-06T04:43:20.760Z,15.23
2018-12-06T04:46:02.313Z,12.03
2018-12-06T04:48:31.315Z,11.68
2018-12-06T04:51:12.539Z,9.20
2018-12-06T04:53:41.459Z,10.88
2018-12-06T04:56:22.643Z,6.62
2018-12-06T04:58:52.759Z,12.82
2018-12-06T05:01:34.467Z,12.43
2018-12-06T05:04:03.380Z,10.53
2018-12-06T05:06:44.637Z,11.08
2018-12-06T05:09:13.584Z,12.47
2018-12-06T05:11:54.837Z,11.25
2018-12-06T05:14:24.847Z,9.90
2018-12-06T05:17:06.094Z,14.87
2018-12-06T05:19:36.944Z,8.27
2018-12-06T05:23:21.553Z,8.83
2018-12-06T05:25:52.391Z,9.15
2018-12-06T05:28:40.255Z,11.08
2018-12-06T05:31:11.074Z,9.83
2018-12-06T05:33:52.276Z,10.30
2018-12-06T05:36:21.162Z,10.53
2018-12-06T05:39:02.601Z,10.43
2018-12-06T05:41:31.490Z,16.60
2018-12-06T05:44:12.781Z,12.58
2018-12-06T05:46:41.682Z,10.10
2018-12-06T05:49:22.870Z,13.65
2018-12-06T05:51:51.752Z,13.55
2018-12-06T05:54:32.958Z,13.98
2018-12-06T05:57:01.852Z,13.68
2018-12-06T05:59:43.031Z,12.65
2018-12-06T06:02:12.034Z,14.30
2018-12-06T06:04:53.274Z,12.23
2018-12-06T06:07:22.472Z,12.28
2018-12-06T06:10:04.115Z,17.42
2018-12-06T06:12:33.017Z,16.02
2018-12-06T06:15:14.230Z,15.18
2018-12-06T06:17:43.130Z,17.35
2018-12-06T06:20:24.341Z,12.70
2018-12-06T06:22:53.339Z,12.35
2018-12-06T06:25:34.609Z,14.20
2018-12-06T06:28:03.502Z,15.20
2018-12-06T06:30:44.689Z,11.65
2018-12-06T06:33:13.587Z,11.43
2018-12-06T06:35:54.791Z,12.78
2018-12-06T06:38:23.800Z,17.82
2018-12-06T06:41:05.010Z,16.40
2018-12-06T06:43:34.042Z,21.90
2018-12-06T06:46:15.251Z,42.67
2018-12-06T06:48:44.147Z,30.68
2018-12-06T06:51:25.437Z,20.45
2018-12-06T06:53:54.337Z,20.10
2018-12-06T06:56:35.585Z,23.22
2018-12-06T06:59:06.004Z,20.70
2018-12-06T07:01:53.266Z,19.15
2018-12-06T07:04:22.146Z,17.57
2018-12-06T07:07:03.367Z,21.05
2018-12-06T07:09:32.268Z,22.60
2018-12-06T07:12:13.638Z,13.98
2018-12-06T07:14:42.562Z,14.47
2018-12-06T07:17:23.815Z,18.77
2018-12-06T07:19:59.574Z,11.80
2018-12-06T07:22:41.405Z,42.40
2018-12-06T07:25:10.529Z,29.63
2018-12-06T07:27:51.714Z,16.67
2018-12-06T07:30:20.839Z,13.72
2018-12-06T07:33:02.190Z,14.33
2018-12-06T07:35:32.223Z,14.38
2018-12-06T07:38:13.558Z,12.63
2018-12-06T07:40:42.491Z,16.90
2018-12-06T07:43:23.718Z,16.07
2018-12-06T07:45:57.190Z,18.85
2018-12-06T07:48:39.624Z,14.45
2018-12-06T07:51:08.774Z,15.05
2018-12-06T07:53:50.282Z,18.52
2018-12-06T07:56:19.510Z,17.82
2018-12-06T07:59:00.854Z,17.92
2018-12-06T08:01:29.882Z,24.77
2018-12-06T08:04:11.085Z,15.72
2018-12-06T08:06:40.059Z,18.60
2018-12-06T08:09:21.249Z,14.93
2018-12-06T08:11:50.170Z,16.17
2018-12-06T08:14:31.454Z,15.83
2018-12-06T08:17:00.339Z,21.17
2018-12-06T08:19:41.551Z,21.87
2018-12-06T08:22:10.485Z,16.07
2018-12-06T08:24:51.679Z,13.60
2018-12-06T08:27:20.767Z,13.53
2018-12-06T08:30:02.030Z,18.95
2018-12-06T08:32:31.359Z,15.40
2018-12-06T08:35:12.570Z,14.50
2018-12-06T08:37:41.471Z,18.40
2018-12-06T08:40:22.714Z,16.57
2018-12-06T08:42:51.617Z,15.43
2018-12-06T08:45:32.831Z,13.68
2018-12-06T08:48:02.757Z,14.50
2018-12-06T08:50:43.963Z,20.55
2018-12-06T08:53:12.864Z,14.68
2018-12-06T08:55:54.107Z,11.33
2018-12-06T08:58:23.005Z,15.03
2018-12-06T09:01:04.230Z,15.70
2018-12-06T09:03:33.162Z,18.77
2018-12-06T09:06:14.503Z,15.08
2018-12-06T09:08:43.431Z,15.75
2018-12-06T09:11:24.760Z,19.45
2018-12-06T09:13:54.466Z,13.30
2018-12-06T09:16:35.667Z,18.77
2018-12-06T09:19:04.823Z,15.28
2018-12-06T09:21:46.119Z,11.63
2018-12-06T09:24:15.031Z,19.92
2018-12-06T09:26:58.917Z,16.25
2018-12-06T09:29:27.276Z,21.37
2018-12-06T09:32:08.498Z,14.53
2018-12-06T09:34:37.412Z,14.95
2018-12-06T09:37:18.612Z,13.32
2018-12-06T09:39:59.680Z,13.98
2018-12-06T09:42:40.950Z,15.28
2018-12-06T09:45:09.891Z,18.63
2018-12-06T09:47:51.089Z,17.57
2018-12-06T09:50:20.099Z,18.23
2018-12-06T09:53:01.399Z,17.37
2018-12-06T09:55:30.289Z,15.97
2018-12-06T09:58:11.647Z,13.47
2018-12-06T10:00:40.556Z,16.73
2018-12-06T10:03:21.830Z,13.63
2018-12-06T10:05:50.746Z,19.20
2018-12-06T10:08:32.126Z,14.58
2018-12-06T10:11:01.430Z,22.03
2018-12-06T10:13:42.675Z,16.77
2018-12-06T10:16:11.783Z,22.30
2018-12-06T10:18:52.971Z,20.97
2018-12-06T10:21:21.897Z,15.23
2018-12-06T10:24:03.234Z,18.82
2018-12-06T10:26:32.174Z,17.48
2018-12-06T10:29:13.414Z,15.55
2018-12-06T10:31:42.549Z,17.50
2018-12-06T10:34:29.766Z,16.55
2018-12-06T10:36:58.790Z,19.25
2018-12-06T10:39:39.987Z,16.80
2018-12-06T10:42:10.798Z,18.98
2018-12-06T10:44:52.014Z,19.65
2018-12-06T10:47:22.901Z,18.12
2018-12-06T10:50:05.075Z,20.53
2018-12-06T10:52:35.893Z,18.90
2018-12-06T10:55:17.115Z,17.60
2018-12-06T10:57:46.029Z,27.87
2018-12-06T11:01:34.552Z,31.50
2018-12-06T11:04:03.624Z,24.00
2018-12-06T11:06:44.810Z,20.23
2018-12-06T11:09:13.820Z,18.50
2018-12-06T11:11:55.067Z,18.47
2018-12-06T11:14:24.165Z,20.90
2018-12-06T11:17:05.540Z,20.63
2018-12-06T11:19:34.546Z,21.60
2018-12-06T11:22:15.822Z,24.83
2018-12-06T11:24:44.737Z,23.87
2018-12-06T11:27:25.942Z,22.58
2018-12-06T11:29:55.043Z,24.20
2018-12-06T11:32:36.350Z,20.23
2018-12-06T11:35:05.703Z,22.98
2018-12-06T11:37:46.937Z,24.12
2018-12-06T11:40:15.816Z,20.92
2018-12-06T11:42:57.124Z,20.25
2018-12-06T11:45:26.052Z,18.55
2018-12-06T11:48:07.273Z,19.73
2018-12-06T11:50:36.183Z,17.85
2018-12-06T11:53:19.264Z,24.35
2018-12-06T11:55:48.976Z,25.20
2018-12-06T11:58:30.451Z,19.10
2018-12-06T12:00:59.635Z,25.70
2018-12-06T12:03:40.862Z,19.67
2018-12-06T12:06:09.775Z,21.12
2018-12-06T12:08:51.943Z,24.92
2018-12-06T12:11:21.057Z,21.70
2018-12-06T12:14:02.258Z,24.02
2018-12-06T12:16:31.186Z,25.47
2018-12-06T12:19:12.686Z,21.03
2018-12-06T12:21:41.805Z,26.00
2018-12-06T12:24:23.011Z,27.17
2018-12-06T12:26:51.926Z,19.45
2018-12-06T12:29:33.139Z,20.85
2018-12-06T12:32:03.866Z,22.90
2018-12-06T12:34:45.098Z,20.68
2018-12-06T12:37:14.019Z,21.25
2018-12-06T12:39:55.302Z,20.50
2018-12-06T12:42:24.183Z,18.25
2018-12-06T12:45:06.286Z,21.25
2018-12-06T12:47:35.311Z,26.27
2018-12-06T12:50:16.556Z,21.90
2018-12-06T12:52:45.470Z,26.77
2018-12-06T12:55:26.783Z,20.97
2018-12-06T12:57:55.822Z,21.60
2018-12-06T13:00:37.031Z,23.60
2018-12-06T13:03:18.395Z,24.37
2018-12-06T13:05:47.311Z,28.00
2018-12-06T13:08:28.581Z,21.25
2018-12-06T13:10:57.558Z,27.75
2018-12-06T13:13:41.207Z,39.00
2018-12-06T13:16:10.151Z,30.85
2018-12-06T13:18:51.362Z,20.07
2018-12-06T13:21:20.290Z,22.87
2018-12-06T13:24:01.480Z,29.57
2018-12-06T13:26:30.822Z,22.52
2018-12-06T13:29:12.017Z,23.15
2018-12-06T13:31:40.940Z,24.05
2018-12-06T13:34:22.115Z,20.13
2018-12-06T13:36:51.154Z,22.93
2018-12-06T13:39:32.383Z,26.20
2018-12-06T13:42:01.295Z,24.70
2018-12-06T13:44:42.570Z,25.95
2018-12-06T13:47:11.499Z,23.85
2018-12-06T13:49:52.677Z,21.85
2018-12-06T13:52:21.710Z,28.87
2018-12-06T13:55:03.555Z,34.30
2018-12-06T13:57:33.474Z,24.97
2018-12-06T14:00:17.119Z,27.30
2018-12-06T14:02:46.048Z,21.03
2018-12-06T14:05:27.226Z,22.57
2018-12-06T14:07:58.118Z,24.20
2018-12-06T14:10:39.314Z,28.73
2018-12-06T14:13:08.211Z,23.37
2018-12-06T14:15:49.399Z,27.43
2018-12-06T14:18:18.542Z,24.27
2018-12-06T14:20:59.733Z,33.70
2018-12-06T14:23:28.755Z,22.13
2018-12-06T14:26:11.163Z,25.57
2018-12-06T14:28:40.264Z,28.27
2018-12-06T14:31:21.468Z,24.20
2018-12-06T14:33:50.392Z,23.60
2018-12-06T14:36:31.618Z,26.75
2018-12-06T14:39:00.551Z,26.02
2018-12-06T14:41:41.844Z,30.75
2018-12-06T14:44:10.833Z,26.20
2018-12-06T14:46:52.040Z,26.57
2018-12-06T14:49:20.978Z,30.60
2018-12-06T14:52:02.189Z,26.45
2018-12-06T14:54:31.123Z,23.90
2018-12-06T14:57:12.555Z,23.65
2018-12-06T14:59:41.663Z,26.23
2018-12-06T15:02:22.937Z,29.50
2018-12-06T15:04:51.943Z,29.10
2018-12-06T15:07:33.138Z,30.25
2018-12-06T15:10:05.135Z,26.20
2018-12-06T15:12:46.350Z,27.50
2018-12-06T15:15:15.627Z,28.80
2018-12-06T15:17:56.822Z,24.60
2018-12-06T15:20:26.103Z,31.52
2018-12-06T15:23:07.394Z,28.07
2018-12-06T15:25:41.843Z,28.95
2018-12-06T15:28:19.619Z,24.15
2018-12-06T15:30:49.064Z,22.58
2018-12-06T15:33:30.427Z,23.12
2018-12-06T15:35:59.450Z,27.40
2018-12-06T15:38:40.639Z,40.55
2018-12-06T15:41:09.843Z,28.60
2018-12-06T15:43:51.038Z,24.55
2018-12-06T15:46:20.072Z,27.60
2018-12-06T15:49:01.275Z,30.32
2018-12-06T15:51:30.341Z,32.08
2018-12-06T15:54:11.563Z,28.45
2018-12-06T15:56:40.851Z,24.65
2018-12-06T15:59:27.444Z,23.27
2018-12-06T16:01:56.483Z,23.60
2018-12-06T16:04:37.667Z,24.82
2018-12-06T16:07:06.835Z,27.07
2018-12-06T16:09:48.191Z,25.90
2018-12-06T16:12:17.218Z,28.02
2018-12-06T16:14:58.402Z,28.60
2018-12-06T16:17:27.457Z,27.35
2018-12-06T16:20:10.389Z,27.80
2018-12-06T16:22:39.426Z,25.43
2018-12-06T16:25:20.639Z,24.85
2018-12-06T16:27:49.658Z,25.52
2018-12-06T16:30:30.919Z,31.12
2018-12-06T16:33:00.251Z,28.62
2018-12-06T16:35:41.490Z,27.30
2018-12-06T16:38:10.458Z,25.45
2018-12-06T16:40:51.638Z,32.15
2018-12-06T16:43:20.568Z,30.65
2018-12-06T16:46:01.791Z,25.08
2018-12-06T16:48:31.120Z,31.57
2018-12-06T16:51:12.671Z,29.20
2018-12-06T16:53:41.610Z,35.23
2018-12-06T16:56:22.821Z,28.75
2018-12-06T16:58:51.854Z,27.47
2018-12-06T17:01:33.595Z,25.82
2018-12-06T17:04:02.570Z,33.20
2018-12-06T17:06:43.802Z,36.00
2018-12-06T17:09:12.719Z,26.70
2018-12-06T17:11:54.312Z,32.80
2018-12-06T17:14:23.855Z,30.10
2018-12-06T17:17:05.344Z,27.37
2018-12-06T17:19:34.282Z,31.50
2018-12-06T17:22:15.502Z,26.05
2018-12-06T17:24:44.430Z,27.32
2018-12-06T17:27:25.653Z,24.02
2018-12-06T17:29:54.984Z,33.40
2018-12-06T17:32:36.738Z,25.23
2018-12-06T17:35:07.233Z,25.90
2018-12-06T17:37:48.653Z,28.35
2018-12-06T17:40:17.839Z,30.68
2018-12-06T17:42:59.430Z,27.42
2018-12-06T17:45:29.721Z,35.73
2018-12-06T17:48:10.960Z,28.55
2018-12-06T17:50:40.270Z,26.75
2018-12-06T17:53:21.962Z,35.13
2018-12-06T17:55:55.366Z,30.02
2018-12-06T17:58:36.638Z,25.23
2018-12-06T18:01:06.243Z,31.45
2018-12-06T18:03:47.471Z,25.57
2018-12-06T18:06:17.258Z,24.37
2018-12-06T18:08:58.436Z,29.07
2018-12-06T18:11:28.018Z,29.12
2018-12-06T18:14:09.236Z,28.83
2018-12-06T18:16:38.295Z,29.87
2018-12-06T18:19:19.532Z,29.98
2018-12-06T18:22:01.493Z,27.35
2018-12-06T18:24:30.524Z,26.03
2018-12-06T18:27:11.764Z,27.27
2018-12-06T18:29:40.694Z,34.40
2018-12-06T18:32:21.911Z,30.43
2018-12-06T18:34:50.806Z,28.10
2018-12-06T18:37:32.250Z,27.17
2018-12-06T18:40:01.205Z,25.82
2018-12-06T18:42:42.576Z,29.45
2018-12-06T18:45:11.579Z,29.77
2018-12-06T18:47:52.817Z,30.92
2018-12-06T18:50:21.843Z,33.18
2018-12-06T18:53:03.173Z,28.30
2018-12-06T18:55:32.086Z,28.57
2018-12-06T18:58:13.362Z,37.13
2018-12-06T19:00:42.292Z,34.25
2018-12-06T19:03:23.594Z,28.87
2018-12-06T19:05:52.829Z,29.15
2018-12-06T19:08:34.051Z,28.07
2018-12-06T19:11:03.067Z,32.95
2018-12-06T19:13:44.328Z,35.17
2018-12-06T19:16:13.251Z,28.92
2018-12-06T19:18:54.510Z,30.85
2018-12-06T19:21:23.431Z,27.95
2018-12-06T19:24:04.662Z,32.73
2018-12-06T19:26:33.607Z,30.40
2018-12-06T19:29:14.855Z,32.60
2018-12-06T19:31:45.664Z,30.52
2018-12-06T19:34:26.901Z,36.63
2018-12-06T19:36:56.783Z,38.85
2018-12-06T19:39:37.983Z,40.58
2018-12-06T19:42:06.996Z,36.80
2018-12-06T19:44:48.978Z,37.42
2018-12-06T19:47:18.014Z,36.35
2018-12-06T19:49:59.227Z,38.05
2018-12-06T19:52:28.248Z,35.68
2018-12-06T19:55:09.462Z,37.30
2018-12-06T19:57:38.489Z,36.80
2018-12-06T20:00:28.698Z,47.33
2018-12-06T20:02:58.439Z,45.70
2018-12-06T20:05:40.110Z,38.73
2018-12-06T20:08:09.798Z,41.37
2018-12-06T20:10:51.044Z,43.00
2018-12-06T20:13:20.437Z,35.20
2018-12-06T20:16:01.662Z,38.50
2018-12-06T20:18:31.388Z,40.85
2018-12-06T20:21:13.142Z,36.48
2018-12-06T20:23:43.347Z,39.65
2018-12-06T20:26:24.574Z,39.15
2018-12-06T20:28:53.486Z,39.45
2018-12-06T20:31:34.751Z,32.20
2018-12-06T20:34:03.692Z,35.05
2018-12-06T20:36:44.954Z,34.83
2018-12-06T20:39:14.957Z,38.28
2018-12-06T20:41:56.223Z,35.35
2018-12-06T20:44:25.267Z,43.25
2018-12-06T20:47:06.503Z,35.55
2018-12-06T20:49:37.315Z,39.92
2018-12-06T20:52:18.940Z,34.78
2018-12-06T20:54:49.800Z,38.60
2018-12-06T20:57:37.180Z,38.55
2018-12-06T21:00:02.638Z,37.30
2018-12-06T21:02:43.947Z,32.83
2018-12-06T21:05:13.078Z,33.75
2018-12-06T21:07:55.909Z,35.43
2018-12-06T21:10:25.160Z,44.15
2018-12-06T21:13:06.592Z,39.25
2018-12-06T21:15:35.493Z,36.00
2018-12-06T21:18:16.698Z,35.30
2018-12-06T21:20:45.602Z,34.50
2018-12-06T21:23:27.925Z,33.67
2018-12-06T21:25:57.132Z,36.85
2018-12-06T21:28:45.065Z,35.65
2018-12-06T21:31:14.125Z,42.33
2018-12-06T21:33:55.422Z,35.28
2018-12-06T21:36:24.362Z,35.05
2018-12-06T21:39:08.043Z,41.23
2018-12-06T21:41:37.387Z,33.02
2018-12-06T21:44:24.150Z,32.33
2018-12-06T21:46:53.471Z,35.68
2018-12-06T21:49:35.100Z,39.80
2018-12-06T21:52:04.686Z,39.80
2018-12-06T21:54:45.952Z,38.55
2018-12-06T21:57:14.850Z,41.20
2018-12-06T21:59:56.036Z,40.23
2018-12-06T22:02:27.014Z,41.92
2018-12-06T22:05:08.482Z,45.10
2018-12-06T22:07:37.694Z,39.15
2018-12-06T22:10:18.914Z,41.83
2018-12-06T22:12:48.641Z,40.03
2018-12-06T22:15:29.831Z,41.98
2018-12-06T22:17:58.841Z,39.88
2018-12-06T22:20:40.479Z,49.63
2018-12-06T22:23:09.371Z,43.20
2018-12-06T22:25:50.617Z,45.28
2018-12-06T22:28:19.611Z,44.40
2018-12-06T22:31:00.846Z,42.80
2018-12-06T22:33:29.745Z,44.65
2018-12-06T22:36:10.949Z,48.50
2018-12-06T22:38:39.874Z,52.17
2018-12-06T22:41:21.066Z,45.63
2018-12-06T22:43:49.945Z,47.33
2018-12-06T22:46:31.240Z,48.65
2018-12-06T22:49:00.343Z,48.63
2018-12-06T22:51:41.626Z,41.33
2018-12-06T22:54:10.519Z,42.23
2018-12-06T22:56:51.782Z,35.98
2018-12-06T22:59:27.654Z,39.15
2018-12-06T23:02:08.919Z,38.02
2018-12-06T23:04:37.815Z,41.30
2018-12-06T23:07:19.017Z,37.15
2018-12-06T23:09:48.038Z,34.20
2018-12-06T23:12:29.542Z,42.98
2018-12-06T23:14:58.582Z,39.20
2018-12-06T23:17:39.789Z,37.23
2018-12-06T23:20:09.030Z,42.13
2018-12-06T23:22:50.442Z,39.55
2018-12-06T23:25:21.240Z,36.95
2018-12-06T23:28:02.627Z,40.35
2018-12-06T23:30:31.550Z,44.48
2018-12-06T23:33:13.400Z,39.73
2018-12-06T23:35:42.294Z,40.95
2018-12-06T23:38:23.490Z,36.58
2018-12-06T23:40:52.395Z,34.23
2018-12-06T23:43:33.675Z,38.60
2018-12-06T23:46:02.643Z,35.28
2018-12-06T23:48:43.874Z,35.98
2018-12-06T23:51:35.423Z,39.05
2018-12-06T23:54:16.631Z,33.90
2018-12-06T23:56:45.559Z,37.25
2018-12-06T23:59:28.249Z,31.00
